sensor_id;sensor_type;location;lat;lon;timestamp;temperature;humidity
68051;DHT22;54839;51.364;7.246;2022-09-09T00:04:34;15.00;99.90
68051;DHT22;54839;51.364;7.246;2022-09-09T00:09:50;15.00;99.90
68051;DHT22;54839;51.364;7.246;2022-09-09T00:12:25;15.10;99.90
68051;DHT22;54839;51.364;7.246;2022-09-09T00:15:00;15.10;99.90
68051;DHT22;54839;51.364;7.246;2022-09-09T00:17:36;15.20;99.90
68051;DHT22;54839;51.364;7.246;2022-09-09T00:20:13;15.10;99.90
68051;DHT22;54839;51.364;7.246;2022-09-09T00:22:50;15.10;99.90
68051;DHT22;54839;51.364;7.246;2022-09-09T00:25:32;15.10;99.90
68051;DHT22;54839;51.364;7.246;2022-09-09T00:27:59;15.10;99.90
68051;DHT22;54839;51.364;7.246;2022-09-09T00:30:32;15.00;99.90
68051;DHT22;54839;51.364;7.246;2022-09-09T00:33:11;15.00;99.90
68051;DHT22;54839;51.364;7.246;2022-09-09T00:35:56;15.00;99.90
68051;DHT22;54839;51.364;7.246;2022-09-09T00:38:38;15.00;99.90
68051;DHT22;54839;51.364;7.246;2022-09-09T00:43:41;14.80;99.90
68051;DHT22;54839;51.364;7.246;2022-09-09T00:51:16;14.60;99.90
68051;DHT22;54839;51.364;7.246;2022-09-09T00:54:08;14.60;99.90
68051;DHT22;54839;51.364;7.246;2022-09-09T00:56:40;14.60;99.90
68051;DHT22;54839;51.364;7.246;2022-09-09T00:59:24;14.60;99.90
68051;DHT22;54839;51.364;7.246;2022-09-09T01:01:53;14.70;99.90
68051;DHT22;54839;51.364;7.246;2022-09-09T01:04:32;14.80;99.90
68051;DHT22;54839;51.364;7.246;2022-09-09T01:07:09;14.80;99.90
68051;DHT22;54839;51.364;7.246;2022-09-09T01:09:57;14.70;99.90
68051;DHT22;54839;51.364;7.246;2022-09-09T01:12:38;14.70;99.90
68051;DHT22;54839;51.364;7.246;2022-09-09T01:15:17;14.70;99.90
68051;DHT22;54839;51.364;7.246;2022-09-09T01:18:07;14.70;99.90
68051;DHT22;54839;51.364;7.246;2022-09-09T01:26:35;14.80;99.90
68051;DHT22;54839;51.364;7.246;2022-09-09T01:29:02;14.90;99.90
68051;DHT22;54839;51.364;7.246;2022-09-09T01:31:57;15.10;99.90
68051;DHT22;54839;51.364;7.246;2022-09-09T01:34:21;15.10;99.90
68051;DHT22;54839;51.364;7.246;2022-09-09T01:37:03;15.30;99.90
68051;DHT22;54839;51.364;7.246;2022-09-09T01:39:31;15.30;99.90
68051;DHT22;54839;51.364;7.246;2022-09-09T01:41:58;15.40;99.90
68051;DHT22;54839;51.364;7.246;2022-09-09T01:44:24;15.50;99.90
68051;DHT22;54839;51.364;7.246;2022-09-09T01:46:51;15.50;99.90
68051;DHT22;54839;51.364;7.246;2022-09-09T01:49:17;15.50;99.90
68051;DHT22;54839;51.364;7.246;2022-09-09T01:51:43;15.40;99.90
68051;DHT22;54839;51.364;7.246;2022-09-09T01:54:11;15.40;99.90
68051;DHT22;54839;51.364;7.246;2022-09-09T01:59:33;15.50;99.90
68051;DHT22;54839;51.364;7.246;2022-09-09T02:02:23;15.40;99.90
68051;DHT22;54839;51.364;7.246;2022-09-09T02:05:00;15.30;99.90
68051;DHT22;54839;51.364;7.246;2022-09-09T02:07:38;15.20;99.90
68051;DHT22;54839;51.364;7.246;2022-09-09T02:10:16;15.20;99.90
68051;DHT22;54839;51.364;7.246;2022-09-09T02:12:49;15.30;99.90
68051;DHT22;54839;51.364;7.246;2022-09-09T02:18:05;15.20;99.90
68051;DHT22;54839;51.364;7.246;2022-09-09T02:20:34;15.10;99.90
68051;DHT22;54839;51.364;7.246;2022-09-09T02:23:02;15.20;99.90
68051;DHT22;54839;51.364;7.246;2022-09-09T02:25:29;15.10;99.90
68051;DHT22;54839;51.364;7.246;2022-09-09T02:27:55;15.10;99.90
68051;DHT22;54839;51.364;7.246;2022-09-09T02:30:23;15.10;99.90
68051;DHT22;54839;51.364;7.246;2022-09-09T02:32:51;15.10;99.90
68051;DHT22;54839;51.364;7.246;2022-09-09T02:35:21;15.00;99.90
68051;DHT22;54839;51.364;7.246;2022-09-09T02:37:51;15.10;99.90
68051;DHT22;54839;51.364;7.246;2022-09-09T02:40:18;15.10;99.90
68051;DHT22;54839;51.364;7.246;2022-09-09T02:42:46;15.00;99.90
68051;DHT22;54839;51.364;7.246;2022-09-09T02:45:18;15.00;99.90
68051;DHT22;54839;51.364;7.246;2022-09-09T02:47:52;15.00;99.90
68051;DHT22;54839;51.364;7.246;2022-09-09T02:50:32;15.20;99.90
68051;DHT22;54839;51.364;7.246;2022-09-09T02:55:39;15.20;99.90
68051;DHT22;54839;51.364;7.246;2022-09-09T02:58:08;15.20;99.90
68051;DHT22;54839;51.364;7.246;2022-09-09T03:00:35;15.30;99.90
68051;DHT22;54839;51.364;7.246;2022-09-09T03:03:05;15.30;99.90
68051;DHT22;54839;51.364;7.246;2022-09-09T03:05:31;15.30;99.90
68051;DHT22;54839;51.364;7.246;2022-09-09T03:07:57;15.20;99.90
68051;DHT22;54839;51.364;7.246;2022-09-09T03:10:23;15.10;99.90
68051;DHT22;54839;51.364;7.246;2022-09-09T03:12:49;15.00;99.90
68051;DHT22;54839;51.364;7.246;2022-09-09T03:15:16;14.90;99.90
68051;DHT22;54839;51.364;7.246;2022-09-09T03:17:42;14.80;99.90
68051;DHT22;54839;51.364;7.246;2022-09-09T03:20:08;14.90;99.90
68051;DHT22;54839;51.364;7.246;2022-09-09T03:22:34;14.90;99.90
68051;DHT22;54839;51.364;7.246;2022-09-09T03:25:00;14.80;99.90
68051;DHT22;54839;51.364;7.246;2022-09-09T03:27:28;14.80;99.90
68051;DHT22;54839;51.364;7.246;2022-09-09T03:29:54;14.80;99.90
68051;DHT22;54839;51.364;7.246;2022-09-09T03:32:21;14.70;99.90
68051;DHT22;54839;51.364;7.246;2022-09-09T03:34:48;14.70;99.90
68051;DHT22;54839;51.364;7.246;2022-09-09T03:37:15;14.80;99.90
68051;DHT22;54839;51.364;7.246;2022-09-09T03:39:41;14.70;99.90
68051;DHT22;54839;51.364;7.246;2022-09-09T03:42:06;14.80;99.90
68051;DHT22;54839;51.364;7.246;2022-09-09T03:44:32;14.80;99.90
68051;DHT22;54839;51.364;7.246;2022-09-09T03:46:57;14.80;99.90
68051;DHT22;54839;51.364;7.246;2022-09-09T03:49:25;14.80;99.90
68051;DHT22;54839;51.364;7.246;2022-09-09T03:51:54;14.70;99.90
68051;DHT22;54839;51.364;7.246;2022-09-09T03:54:20;14.80;99.90
68051;DHT22;54839;51.364;7.246;2022-09-09T03:56:45;14.80;99.90
68051;DHT22;54839;51.364;7.246;2022-09-09T03:59:11;14.80;99.90
68051;DHT22;54839;51.364;7.246;2022-09-09T04:01:36;15.10;99.90
68051;DHT22;54839;51.364;7.246;2022-09-09T04:04:02;15.00;99.90
68051;DHT22;54839;51.364;7.246;2022-09-09T04:06:27;15.00;99.90
68051;DHT22;54839;51.364;7.246;2022-09-09T04:08:54;15.10;99.90
68051;DHT22;54839;51.364;7.246;2022-09-09T04:11:20;15.10;99.90
68051;DHT22;54839;51.364;7.246;2022-09-09T04:13:46;15.20;99.90
68051;DHT22;54839;51.364;7.246;2022-09-09T04:16:13;15.20;99.90
68051;DHT22;54839;51.364;7.246;2022-09-09T04:18:39;15.10;99.90
68051;DHT22;54839;51.364;7.246;2022-09-09T04:21:05;15.20;99.90
68051;DHT22;54839;51.364;7.246;2022-09-09T04:23:32;15.10;99.90
68051;DHT22;54839;51.364;7.246;2022-09-09T04:25:59;15.20;99.90
68051;DHT22;54839;51.364;7.246;2022-09-09T04:28:27;15.10;99.90
68051;DHT22;54839;51.364;7.246;2022-09-09T04:30:54;15.20;99.90
68051;DHT22;54839;51.364;7.246;2022-09-09T04:33:20;15.10;99.90
68051;DHT22;54839;51.364;7.246;2022-09-09T04:35:49;15.10;99.90
68051;DHT22;54839;51.364;7.246;2022-09-09T04:38:16;15.00;99.90
68051;DHT22;54839;51.364;7.246;2022-09-09T04:40:44;14.90;99.90
68051;DHT22;54839;51.364;7.246;2022-09-09T04:43:10;14.90;99.90
68051;DHT22;54839;51.364;7.246;2022-09-09T04:45:35;14.90;99.90
68051;DHT22;54839;51.364;7.246;2022-09-09T04:48:01;14.90;99.90
68051;DHT22;54839;51.364;7.246;2022-09-09T04:50:28;15.00;99.90
68051;DHT22;54839;51.364;7.246;2022-09-09T04:52:54;15.00;99.90
68051;DHT22;54839;51.364;7.246;2022-09-09T04:55:19;15.10;99.90
68051;DHT22;54839;51.364;7.246;2022-09-09T04:57:45;15.10;99.90
68051;DHT22;54839;51.364;7.246;2022-09-09T05:00:11;15.10;99.90
68051;DHT22;54839;51.364;7.246;2022-09-09T05:02:38;15.10;99.90
68051;DHT22;54839;51.364;7.246;2022-09-09T05:05:05;15.10;99.90
68051;DHT22;54839;51.364;7.246;2022-09-09T05:07:31;15.10;99.90
68051;DHT22;54839;51.364;7.246;2022-09-09T05:09:57;15.20;99.90
68051;DHT22;54839;51.364;7.246;2022-09-09T05:12:23;15.20;99.90
68051;DHT22;54839;51.364;7.246;2022-09-09T05:14:53;15.20;99.90
68051;DHT22;54839;51.364;7.246;2022-09-09T05:17:19;15.30;99.90
68051;DHT22;54839;51.364;7.246;2022-09-09T05:19:44;15.30;99.90
68051;DHT22;54839;51.364;7.246;2022-09-09T05:22:10;15.30;99.90
68051;DHT22;54839;51.364;7.246;2022-09-09T05:24:39;15.40;99.90
68051;DHT22;54839;51.364;7.246;2022-09-09T05:27:04;15.40;99.90
68051;DHT22;54839;51.364;7.246;2022-09-09T05:29:31;15.50;99.90
68051;DHT22;54839;51.364;7.246;2022-09-09T05:31:59;15.40;99.90
68051;DHT22;54839;51.364;7.246;2022-09-09T05:34:24;15.60;99.90
68051;DHT22;54839;51.364;7.246;2022-09-09T05:36:50;15.60;99.90
68051;DHT22;54839;51.364;7.246;2022-09-09T05:39:16;15.50;99.90
68051;DHT22;54839;51.364;7.246;2022-09-09T05:41:41;15.60;99.90
68051;DHT22;54839;51.364;7.246;2022-09-09T05:44:07;15.60;99.90
68051;DHT22;54839;51.364;7.246;2022-09-09T05:46:33;15.70;99.90
68051;DHT22;54839;51.364;7.246;2022-09-09T05:48:58;15.80;99.90
68051;DHT22;54839;51.364;7.246;2022-09-09T05:51:26;15.80;99.90
68051;DHT22;54839;51.364;7.246;2022-09-09T05:53:53;15.70;99.90
68051;DHT22;54839;51.364;7.246;2022-09-09T05:56:22;15.80;99.90
68051;DHT22;54839;51.364;7.246;2022-09-09T05:58:49;15.80;99.90
68051;DHT22;54839;51.364;7.246;2022-09-09T06:01:19;15.90;99.90
68051;DHT22;54839;51.364;7.246;2022-09-09T06:03:47;16.00;99.90
68051;DHT22;54839;51.364;7.246;2022-09-09T06:06:17;15.90;99.90
68051;DHT22;54839;51.364;7.246;2022-09-09T06:08:46;16.10;99.90
68051;DHT22;54839;51.364;7.246;2022-09-09T06:11:14;16.10;99.90
68051;DHT22;54839;51.364;7.246;2022-09-09T06:13:40;16.00;99.90
68051;DHT22;54839;51.364;7.246;2022-09-09T06:16:12;16.00;99.90
68051;DHT22;54839;51.364;7.246;2022-09-09T06:18:41;16.10;99.90
68051;DHT22;54839;51.364;7.246;2022-09-09T06:21:11;16.10;99.90
68051;DHT22;54839;51.364;7.246;2022-09-09T06:23:36;16.10;99.90
68051;DHT22;54839;51.364;7.246;2022-09-09T06:26:26;16.20;99.90
68051;DHT22;54839;51.364;7.246;2022-09-09T06:28:54;16.30;99.90
68051;DHT22;54839;51.364;7.246;2022-09-09T06:31:21;16.40;99.90
68051;DHT22;54839;51.364;7.246;2022-09-09T06:33:49;16.50;99.90
68051;DHT22;54839;51.364;7.246;2022-09-09T06:36:23;16.40;99.90
68051;DHT22;54839;51.364;7.246;2022-09-09T06:38:48;16.50;99.90
68051;DHT22;54839;51.364;7.246;2022-09-09T06:41:16;16.50;99.90
68051;DHT22;54839;51.364;7.246;2022-09-09T06:43:42;16.60;99.90
68051;DHT22;54839;51.364;7.246;2022-09-09T06:46:22;16.60;99.90
68051;DHT22;54839;51.364;7.246;2022-09-09T06:48:48;16.70;99.90
68051;DHT22;54839;51.364;7.246;2022-09-09T06:53:41;16.60;99.90
68051;DHT22;54839;51.364;7.246;2022-09-09T06:58:41;16.30;99.90
68051;DHT22;54839;51.364;7.246;2022-09-09T07:01:14;16.30;99.90
68051;DHT22;54839;51.364;7.246;2022-09-09T07:03:41;16.00;99.90
68051;DHT22;54839;51.364;7.246;2022-09-09T07:06:09;16.00;99.90
68051;DHT22;54839;51.364;7.246;2022-09-09T07:08:38;16.10;99.90
68051;DHT22;54839;51.364;7.246;2022-09-09T07:11:06;16.20;99.90
68051;DHT22;54839;51.364;7.246;2022-09-09T07:13:32;16.40;99.90
68051;DHT22;54839;51.364;7.246;2022-09-09T07:16:06;16.60;99.90
68051;DHT22;54839;51.364;7.246;2022-09-09T07:18:32;16.80;99.90
68051;DHT22;54839;51.364;7.246;2022-09-09T07:20:58;17.00;99.90
68051;DHT22;54839;51.364;7.246;2022-09-09T07:23:24;16.90;99.90
68051;DHT22;54839;51.364;7.246;2022-09-09T07:25:50;17.00;99.90
68051;DHT22;54839;51.364;7.246;2022-09-09T07:28:16;17.20;99.90
68051;DHT22;54839;51.364;7.246;2022-09-09T07:30:42;17.20;99.90
68051;DHT22;54839;51.364;7.246;2022-09-09T07:33:09;17.10;99.90
68051;DHT22;54839;51.364;7.246;2022-09-09T07:35:37;17.10;99.90
68051;DHT22;54839;51.364;7.246;2022-09-09T07:38:04;17.00;99.90
68051;DHT22;54839;51.364;7.246;2022-09-09T07:40:33;16.90;99.90
68051;DHT22;54839;51.364;7.246;2022-09-09T07:42:59;16.90;99.90
68051;DHT22;54839;51.364;7.246;2022-09-09T07:45:25;17.10;99.90
68051;DHT22;54839;51.364;7.246;2022-09-09T07:47:53;17.30;99.90
68051;DHT22;54839;51.364;7.246;2022-09-09T07:50:19;17.40;99.90
68051;DHT22;54839;51.364;7.246;2022-09-09T07:52:44;17.60;99.90
68051;DHT22;54839;51.364;7.246;2022-09-09T07:55:10;17.60;99.90
68051;DHT22;54839;51.364;7.246;2022-09-09T07:57:36;17.60;99.90
68051;DHT22;54839;51.364;7.246;2022-09-09T08:00:03;17.70;99.90
68051;DHT22;54839;51.364;7.246;2022-09-09T08:02:28;17.90;99.90
68051;DHT22;54839;51.364;7.246;2022-09-09T08:04:55;18.00;99.90
68051;DHT22;54839;51.364;7.246;2022-09-09T08:07:21;18.20;99.90
68051;DHT22;54839;51.364;7.246;2022-09-09T08:09:47;18.20;99.90
68051;DHT22;54839;51.364;7.246;2022-09-09T08:12:13;18.20;99.90
68051;DHT22;54839;51.364;7.246;2022-09-09T08:14:39;18.10;99.90
68051;DHT22;54839;51.364;7.246;2022-09-09T08:17:05;18.10;99.90
68051;DHT22;54839;51.364;7.246;2022-09-09T08:19:31;18.00;99.90
68051;DHT22;54839;51.364;7.246;2022-09-09T08:21:59;17.90;99.90
68051;DHT22;54839;51.364;7.246;2022-09-09T08:24:27;18.00;99.90
68051;DHT22;54839;51.364;7.246;2022-09-09T08:26:53;18.20;99.90
68051;DHT22;54839;51.364;7.246;2022-09-09T08:29:19;18.30;99.90
68051;DHT22;54839;51.364;7.246;2022-09-09T08:31:47;18.30;99.90
68051;DHT22;54839;51.364;7.246;2022-09-09T08:34:13;18.40;99.90
68051;DHT22;54839;51.364;7.246;2022-09-09T08:36:44;18.10;99.90
68051;DHT22;54839;51.364;7.246;2022-09-09T08:39:11;18.10;99.90
68051;DHT22;54839;51.364;7.246;2022-09-09T08:44:56;17.90;99.90
68051;DHT22;54839;51.364;7.246;2022-09-09T08:48:01;18.10;99.90
68051;DHT22;54839;51.364;7.246;2022-09-09T08:50:35;18.10;99.90
68051;DHT22;54839;51.364;7.246;2022-09-09T08:53:22;18.30;99.90
68051;DHT22;54839;51.364;7.246;2022-09-09T08:58:23;18.50;99.90
68051;DHT22;54839;51.364;7.246;2022-09-09T09:11:54;19.30;99.90
68051;DHT22;54839;51.364;7.246;2022-09-09T09:14:23;19.20;99.90
68051;DHT22;54839;51.364;7.246;2022-09-09T09:17:02;19.00;99.90
68051;DHT22;54839;51.364;7.246;2022-09-09T09:19:30;18.90;99.90
68051;DHT22;54839;51.364;7.246;2022-09-09T09:22:05;19.10;99.90
68051;DHT22;54839;51.364;7.246;2022-09-09T09:24:51;19.10;99.90
68051;DHT22;54839;51.364;7.246;2022-09-09T09:27:34;19.30;99.90
68051;DHT22;54839;51.364;7.246;2022-09-09T09:30:12;19.60;99.90
68051;DHT22;54839;51.364;7.246;2022-09-09T09:32:42;19.80;99.90
68051;DHT22;54839;51.364;7.246;2022-09-09T09:35:13;20.10;99.90
68051;DHT22;54839;51.364;7.246;2022-09-09T09:37:40;20.10;99.90
68051;DHT22;54839;51.364;7.246;2022-09-09T09:40:18;19.50;99.90
68051;DHT22;54839;51.364;7.246;2022-09-09T09:42:54;19.60;99.90
68051;DHT22;54839;51.364;7.246;2022-09-09T09:45:29;19.10;99.90
68051;DHT22;54839;51.364;7.246;2022-09-09T09:47:58;18.70;99.90
68051;DHT22;54839;51.364;7.246;2022-09-09T09:50:24;18.70;99.90
68051;DHT22;54839;51.364;7.246;2022-09-09T09:52:58;18.60;99.90
68051;DHT22;54839;51.364;7.246;2022-09-09T09:55:25;18.80;99.90
68051;DHT22;54839;51.364;7.246;2022-09-09T09:57:50;19.10;99.90
68051;DHT22;54839;51.364;7.246;2022-09-09T10:00:18;19.20;99.90
68051;DHT22;54839;51.364;7.246;2022-09-09T10:02:46;19.40;99.90
68051;DHT22;54839;51.364;7.246;2022-09-09T10:07:40;19.70;99.90
68051;DHT22;54839;51.364;7.246;2022-09-09T10:10:08;19.40;99.90
68051;DHT22;54839;51.364;7.246;2022-09-09T10:12:46;19.50;99.90
68051;DHT22;54839;51.364;7.246;2022-09-09T10:15:42;19.80;99.90
68051;DHT22;54839;51.364;7.246;2022-09-09T10:18:15;19.90;99.90
68051;DHT22;54839;51.364;7.246;2022-09-09T10:21:28;20.40;99.90
68051;DHT22;54839;51.364;7.246;2022-09-09T10:24:16;20.20;99.90
68051;DHT22;54839;51.364;7.246;2022-09-09T10:27:20;19.70;99.90
68051;DHT22;54839;51.364;7.246;2022-09-09T10:32:54;19.30;99.90
68051;DHT22;54839;51.364;7.246;2022-09-09T10:35:53;19.60;99.90
68051;DHT22;54839;51.364;7.246;2022-09-09T10:38:39;19.90;99.90
68051;DHT22;54839;51.364;7.246;2022-09-09T10:50:01;20.80;99.90
68051;DHT22;54839;51.364;7.246;2022-09-09T10:55:43;21.10;99.90
68051;DHT22;54839;51.364;7.246;2022-09-09T10:58:17;20.70;99.90
68051;DHT22;54839;51.364;7.246;2022-09-09T11:00:53;21.00;99.90
68051;DHT22;54839;51.364;7.246;2022-09-09T11:03:25;21.00;99.90
68051;DHT22;54839;51.364;7.246;2022-09-09T11:05:55;20.90;99.90
68051;DHT22;54839;51.364;7.246;2022-09-09T11:08:25;21.20;99.90
68051;DHT22;54839;51.364;7.246;2022-09-09T11:10:52;21.50;99.90
68051;DHT22;54839;51.364;7.246;2022-09-09T11:16:28;21.70;99.90
68051;DHT22;54839;51.364;7.246;2022-09-09T11:19:30;21.60;99.90
68051;DHT22;54839;51.364;7.246;2022-09-09T11:22:01;22.10;99.90
68051;DHT22;54839;51.364;7.246;2022-09-09T11:24:40;22.60;99.90
68051;DHT22;54839;51.364;7.246;2022-09-09T11:27:19;22.50;99.90
68051;DHT22;54839;51.364;7.246;2022-09-09T11:36:15;22.00;99.90
68051;DHT22;54839;51.364;7.246;2022-09-09T11:38:52;21.60;99.90
68051;DHT22;54839;51.364;7.246;2022-09-09T11:41:20;21.00;99.90
68051;DHT22;54839;51.364;7.246;2022-09-09T11:43:51;21.10;99.90
68051;DHT22;54839;51.364;7.246;2022-09-09T11:46:20;21.30;99.90
68051;DHT22;54839;51.364;7.246;2022-09-09T11:48:58;20.90;99.90
68051;DHT22;54839;51.364;7.246;2022-09-09T11:51:27;21.00;99.90
68051;DHT22;54839;51.364;7.246;2022-09-09T11:53:56;20.80;99.90
68051;DHT22;54839;51.364;7.246;2022-09-09T11:56:30;20.60;99.90
68051;DHT22;54839;51.364;7.246;2022-09-09T11:59:03;20.50;99.90
68051;DHT22;54839;51.364;7.246;2022-09-09T12:01:34;20.30;99.90
68051;DHT22;54839;51.364;7.246;2022-09-09T12:06:50;20.20;99.90
68051;DHT22;54839;51.364;7.246;2022-09-09T12:09:33;20.00;99.90
68051;DHT22;54839;51.364;7.246;2022-09-09T12:12:06;19.80;99.90
68051;DHT22;54839;51.364;7.246;2022-09-09T12:19:35;18.70;99.90
68051;DHT22;54839;51.364;7.246;2022-09-09T12:22:32;18.50;99.90
68051;DHT22;54839;51.364;7.246;2022-09-09T12:28:11;18.20;99.90
68051;DHT22;54839;51.364;7.246;2022-09-09T12:31:02;19.10;99.90
68051;DHT22;54839;51.364;7.246;2022-09-09T12:33:36;20.10;99.90
68051;DHT22;54839;51.364;7.246;2022-09-09T12:36:03;20.20;99.90
68051;DHT22;54839;51.364;7.246;2022-09-09T12:38:36;20.60;99.90
68051;DHT22;54839;51.364;7.246;2022-09-09T12:41:02;20.40;99.90
68051;DHT22;54839;51.364;7.246;2022-09-09T12:43:28;20.30;99.90
68051;DHT22;54839;51.364;7.246;2022-09-09T12:46:00;20.30;99.90
68051;DHT22;54839;51.364;7.246;2022-09-09T12:48:34;20.00;99.90
68051;DHT22;54839;51.364;7.246;2022-09-09T12:51:01;19.90;99.90
68051;DHT22;54839;51.364;7.246;2022-09-09T12:53:35;19.60;99.90
68051;DHT22;54839;51.364;7.246;2022-09-09T12:56:09;19.20;99.90
68051;DHT22;54839;51.364;7.246;2022-09-09T12:58:46;19.10;99.90
68051;DHT22;54839;51.364;7.246;2022-09-09T13:01:23;18.50;99.90
68051;DHT22;54839;51.364;7.246;2022-09-09T13:03:49;18.60;99.90
68051;DHT22;54839;51.364;7.246;2022-09-09T13:06:31;19.60;99.90
68051;DHT22;54839;51.364;7.246;2022-09-09T13:09:00;23.00;99.90
68051;DHT22;54839;51.364;7.246;2022-09-09T13:11:35;25.00;99.90
68051;DHT22;54839;51.364;7.246;2022-09-09T13:14:01;25.30;99.90
68051;DHT22;54839;51.364;7.246;2022-09-09T13:16:33;26.60;99.90
68051;DHT22;54839;51.364;7.246;2022-09-09T13:19:08;29.10;99.90
68051;DHT22;54839;51.364;7.246;2022-09-09T13:21:36;30.60;99.90
68051;DHT22;54839;51.364;7.246;2022-09-09T13:24:23;26.80;99.90
68051;DHT22;54839;51.364;7.246;2022-09-09T13:27:01;25.20;99.90
68051;DHT22;54839;51.364;7.246;2022-09-09T13:29:31;23.10;99.90
68051;DHT22;54839;51.364;7.246;2022-09-09T13:32:16;22.20;99.90
68051;DHT22;54839;51.364;7.246;2022-09-09T13:34:51;21.50;99.90
68051;DHT22;54839;51.364;7.246;2022-09-09T13:37:37;20.70;99.90
68051;DHT22;54839;51.364;7.246;2022-09-09T13:40:04;20.00;99.90
68051;DHT22;54839;51.364;7.246;2022-09-09T13:42:33;19.30;99.90
68051;DHT22;54839;51.364;7.246;2022-09-09T13:45:00;18.50;99.90
68051;DHT22;54839;51.364;7.246;2022-09-09T13:47:35;17.90;99.90
68051;DHT22;54839;51.364;7.246;2022-09-09T13:50:30;17.60;99.90
68051;DHT22;54839;51.364;7.246;2022-09-09T13:52:58;17.80;99.90
68051;DHT22;54839;51.364;7.246;2022-09-09T13:55:26;18.00;99.90
68051;DHT22;54839;51.364;7.246;2022-09-09T13:58:03;18.30;99.90
68051;DHT22;54839;51.364;7.246;2022-09-09T14:00:32;18.40;99.90
68051;DHT22;54839;51.364;7.246;2022-09-09T14:02:58;18.90;99.90
68051;DHT22;54839;51.364;7.246;2022-09-09T14:05:25;20.10;99.90
68051;DHT22;54839;51.364;7.246;2022-09-09T14:07:51;22.50;99.90
68051;DHT22;54839;51.364;7.246;2022-09-09T14:10:16;24.80;99.90
68051;DHT22;54839;51.364;7.246;2022-09-09T14:12:42;24.70;99.90
68051;DHT22;54839;51.364;7.246;2022-09-09T14:15:10;23.80;99.90
68051;DHT22;54839;51.364;7.246;2022-09-09T14:17:36;26.30;99.90
68051;DHT22;54839;51.364;7.246;2022-09-09T14:20:03;29.50;99.90
68051;DHT22;54839;51.364;7.246;2022-09-09T14:22:31;31.30;99.90
68051;DHT22;54839;51.364;7.246;2022-09-09T14:24:59;32.30;99.90
68051;DHT22;54839;51.364;7.246;2022-09-09T14:27:25;32.10;99.90
68051;DHT22;54839;51.364;7.246;2022-09-09T14:29:52;32.10;99.90
68051;DHT22;54839;51.364;7.246;2022-09-09T14:32:18;29.90;99.90
68051;DHT22;54839;51.364;7.246;2022-09-09T14:34:44;25.30;99.90
68051;DHT22;54839;51.364;7.246;2022-09-09T14:37:10;23.50;99.90
68051;DHT22;54839;51.364;7.246;2022-09-09T14:39:35;22.00;99.90
68051;DHT22;54839;51.364;7.246;2022-09-09T14:42:01;21.50;99.90
68051;DHT22;54839;51.364;7.246;2022-09-09T14:44:27;21.20;99.90
68051;DHT22;54839;51.364;7.246;2022-09-09T14:46:53;20.90;99.90
68051;DHT22;54839;51.364;7.246;2022-09-09T14:49:19;20.70;99.90
68051;DHT22;54839;51.364;7.246;2022-09-09T14:51:45;20.90;99.90
68051;DHT22;54839;51.364;7.246;2022-09-09T14:54:11;21.20;99.90
68051;DHT22;54839;51.364;7.246;2022-09-09T14:56:37;22.30;99.90
68051;DHT22;54839;51.364;7.246;2022-09-09T14:59:04;22.70;99.90
68051;DHT22;54839;51.364;7.246;2022-09-09T15:01:31;24.00;99.90
68051;DHT22;54839;51.364;7.246;2022-09-09T15:03:59;23.80;99.90
68051;DHT22;54839;51.364;7.246;2022-09-09T15:06:27;23.00;99.90
68051;DHT22;54839;51.364;7.246;2022-09-09T15:08:54;22.40;99.90
68051;DHT22;54839;51.364;7.246;2022-09-09T15:11:23;21.90;99.90
68051;DHT22;54839;51.364;7.246;2022-09-09T15:13:51;21.70;99.90
68051;DHT22;54839;51.364;7.246;2022-09-09T15:16:19;21.20;99.90
68051;DHT22;54839;51.364;7.246;2022-09-09T15:18:46;20.70;99.90
68051;DHT22;54839;51.364;7.246;2022-09-09T15:21:14;20.10;99.90
68051;DHT22;54839;51.364;7.246;2022-09-09T15:23:40;19.50;99.90
68051;DHT22;54839;51.364;7.246;2022-09-09T15:26:06;17.50;99.90
68051;DHT22;54839;51.364;7.246;2022-09-09T15:28:33;16.70;99.90
68051;DHT22;54839;51.364;7.246;2022-09-09T15:31:06;15.40;99.90
68051;DHT22;54839;51.364;7.246;2022-09-09T15:33:32;14.30;99.90
68051;DHT22;54839;51.364;7.246;2022-09-09T15:35:59;14.80;99.90
68051;DHT22;54839;51.364;7.246;2022-09-09T15:38:24;14.80;99.90
68051;DHT22;54839;51.364;7.246;2022-09-09T15:40:54;14.90;99.90
68051;DHT22;54839;51.364;7.246;2022-09-09T15:43:20;14.60;99.90
68051;DHT22;54839;51.364;7.246;2022-09-09T15:45:46;14.30;99.90
68051;DHT22;54839;51.364;7.246;2022-09-09T15:48:14;14.40;99.90
68051;DHT22;54839;51.364;7.246;2022-09-09T15:50:39;14.50;99.90
68051;DHT22;54839;51.364;7.246;2022-09-09T15:53:05;14.70;99.90
68051;DHT22;54839;51.364;7.246;2022-09-09T15:55:31;14.70;99.90
68051;DHT22;54839;51.364;7.246;2022-09-09T15:57:56;14.80;99.90
68051;DHT22;54839;51.364;7.246;2022-09-09T16:00:23;14.90;99.90
68051;DHT22;54839;51.364;7.246;2022-09-09T16:02:49;15.10;99.90
68051;DHT22;54839;51.364;7.246;2022-09-09T16:05:15;15.30;99.90
68051;DHT22;54839;51.364;7.246;2022-09-09T16:07:41;15.60;99.90
68051;DHT22;54839;51.364;7.246;2022-09-09T16:10:08;15.70;99.90
68051;DHT22;54839;51.364;7.246;2022-09-09T16:12:33;15.80;99.90
68051;DHT22;54839;51.364;7.246;2022-09-09T16:14:59;15.80;99.90
68051;DHT22;54839;51.364;7.246;2022-09-09T16:17:25;15.70;99.90
68051;DHT22;54839;51.364;7.246;2022-09-09T16:19:50;15.70;99.90
68051;DHT22;54839;51.364;7.246;2022-09-09T16:22:16;15.60;99.90
68051;DHT22;54839;51.364;7.246;2022-09-09T16:24:43;15.70;99.90
68051;DHT22;54839;51.364;7.246;2022-09-09T16:27:10;15.60;99.90
68051;DHT22;54839;51.364;7.246;2022-09-09T16:29:36;15.40;99.90
68051;DHT22;54839;51.364;7.246;2022-09-09T16:32:02;15.40;99.90
68051;DHT22;54839;51.364;7.246;2022-09-09T16:34:27;15.40;99.90
68051;DHT22;54839;51.364;7.246;2022-09-09T16:36:53;15.50;99.90
68051;DHT22;54839;51.364;7.246;2022-09-09T16:39:20;15.30;99.90
68051;DHT22;54839;51.364;7.246;2022-09-09T16:41:46;15.40;99.90
68051;DHT22;54839;51.364;7.246;2022-09-09T16:44:14;15.30;99.90
68051;DHT22;54839;51.364;7.246;2022-09-09T16:46:42;15.50;99.90
68051;DHT22;54839;51.364;7.246;2022-09-09T16:49:10;15.70;99.90
68051;DHT22;54839;51.364;7.246;2022-09-09T16:51:38;15.70;99.90
68051;DHT22;54839;51.364;7.246;2022-09-09T16:54:06;15.80;99.90
68051;DHT22;54839;51.364;7.246;2022-09-09T16:56:33;15.80;99.90
68051;DHT22;54839;51.364;7.246;2022-09-09T16:59:01;15.90;99.90
68051;DHT22;54839;51.364;7.246;2022-09-09T17:01:29;16.00;99.90
68051;DHT22;54839;51.364;7.246;2022-09-09T17:04:00;15.90;99.90
68051;DHT22;54839;51.364;7.246;2022-09-09T17:06:26;16.00;99.90
68051;DHT22;54839;51.364;7.246;2022-09-09T17:08:57;15.90;99.90
68051;DHT22;54839;51.364;7.246;2022-09-09T17:11:23;16.00;99.90
68051;DHT22;54839;51.364;7.246;2022-09-09T17:13:50;15.90;99.90
68051;DHT22;54839;51.364;7.246;2022-09-09T17:16:17;16.00;99.90